Time;durP1;ratioP1;P1;durP2;ratioP2;P2;SDS_P1;SDS_P2;PMS_P1;PMS_P2;Temp;Humidity;BMP_temperature;BMP_pressure;BME280_temperature;BME280_humidity;BME280_pressure;Samples;Min_cycle;Max_cycle;Signal;HPM_P1;HPM_P2
2023/10/07 00:00:59;;;;;;;5.90;2.40;;;;;;;16.09;60.72;100620.38;105120;1262;69215;-60
2023/10/07 00:03:40;;;;;;;6.90;3.00;;;;;;;16.11;60.82;100613.20;105035;1261;73372;-60
2023/10/07 00:06:10;;;;;;;8.20;2.70;;;;;;;16.14;60.82;100612.69;105051;1262;83174;-60
2023/10/07 00:08:39;;;;;;;6.30;2.80;;;;;;;16.16;60.84;100611.36;105085;1262;72779;-60
2023/10/07 00:11:11;;;;;;;4.80;2.40;;;;;;;16.16;60.84;100609.56;105153;1263;69743;-60
2023/10/07 00:13:42;;;;;;;6.40;2.60;;;;;;;16.16;60.90;100606.42;105103;1262;69156;-60
2023/10/07 00:16:17;;;;;;;6.30;2.60;;;;;;;16.16;60.93;100603.27;105092;1262;74260;-60
2023/10/07 00:18:45;;;;;;;6.20;2.60;;;;;;;16.16;60.81;100598.35;105072;1262;81633;-60
2023/10/07 00:21:23;;;;;;;5.00;2.80;;;;;;;16.15;60.92;100596.93;105100;1261;72634;-60
2023/10/07 00:23:53;;;;;;;5.50;2.70;;;;;;;16.14;60.93;100593.13;105017;1262;69100;-60
2023/10/07 00:26:21;;;;;;;4.80;2.70;;;;;;;16.13;60.91;100583.50;105166;1260;69145;-60
2023/10/07 00:29:00;;;;;;;5.70;2.50;;;;;;;16.13;60.98;100587.01;105093;1262;74324;-60
2023/10/07 00:31:33;;;;;;;5.20;2.50;;;;;;;16.13;60.97;100579.09;105063;1259;81595;-60
2023/10/07 00:34:05;;;;;;;4.60;2.50;;;;;;;16.14;60.97;100580.11;105052;1262;71900;-60
2023/10/07 00:39:07;;;;;;;5.50;2.40;;;;;;;16.13;60.99;100575.21;105041;1260;69126;-60
2023/10/07 00:41:45;;;;;;;5.80;2.30;;;;;;;16.12;61.00;100571.02;105097;1262;74329;-60
2023/10/07 00:47:14;;;;;;;4.60;2.60;;;;;;;16.11;61.04;100565.14;104955;1260;73025;-60
2023/10/07 00:52:41;;;;;;;7.10;2.80;;;;;;;16.10;61.16;100559.16;105073;1259;69064;-60
2023/10/07 00:55:17;;;;;;;7.10;2.90;;;;;;;16.09;61.15;100554.30;105062;1260;73345;-60
2023/10/07 00:58:03;;;;;;;3.90;2.50;;;;;;;16.08;61.13;100547.48;105115;1260;81702;-60
2023/10/07 01:00:47;;;;;;;6.80;2.80;;;;;;;16.08;61.15;100542.21;105074;1261;72629;-60
2023/10/07 01:08:30;;;;;;;4.60;2.80;;;;;;;16.02;61.18;100534.60;105098;1260;73220;-60
2023/10/07 01:14:00;;;;;;;5.50;2.20;;;;;;;15.99;61.29;100525.08;104746;1263;72979;-60
2023/10/07 01:16:33;;;;;;;7.60;3.20;;;;;;;15.98;61.30;100532.56;105078;1262;69225;-60
2023/10/07 01:22:09;;;;;;;6.30;2.70;;;;;;;15.96;61.38;100529.48;105022;1260;73215;-60
2023/10/07 01:29:49;;;;;;;4.80;2.70;;;;;;;15.93;61.53;100526.66;105037;1259;69194;-60
2023/10/07 01:32:17;;;;;;;6.00;3.00;;;;;;;15.91;61.52;100527.10;105071;1261;69295;-60
2023/10/07 01:34:52;;;;;;;5.70;2.70;;;;;;;15.92;61.69;100530.95;105048;1259;72880;-60
2023/10/07 01:37:24;;;;;;;6.80;2.60;;;;;;;15.92;61.69;100532.20;105100;1261;80650;-60
2023/10/07 01:39:53;;;;;;;5.70;2.40;;;;;;;15.91;61.71;100531.75;105066;1262;72843;-60
2023/10/07 01:42:43;;;;;;;6.70;3.10;;;;;;;15.89;61.81;100527.21;105149;1260;69144;-59
2023/10/07 01:45:19;;;;;;;5.10;2.30;;;;;;;15.88;61.83;100523.59;105024;1262;69131;-60
2023/10/07 01:47:55;;;;;;;4.70;2.70;;;;;;;15.87;61.94;100522.74;105043;1261;73718;-60
2023/10/07 01:50:24;;;;;;;4.70;2.80;;;;;;;15.84;62.04;100514.67;105069;1260;82944;-60
2023/10/07 01:52:55;;;;;;;5.80;2.90;;;;;;;15.80;62.16;100508.69;105074;1262;71692;-60
2023/10/07 01:55:27;;;;;;;7.70;3.00;;;;;;;15.77;62.23;100507.81;105101;1260;69313;-60
2023/10/07 01:57:56;;;;;;;6.70;2.90;;;;;;;15.73;62.26;100506.10;105081;1260;69077;-60
2023/10/07 02:03:29;;;;;;;6.80;2.90;;;;;;;15.67;62.47;100497.64;104682;1264;82718;-60
2023/10/07 02:05:58;;;;;;;7.30;3.00;;;;;;;15.65;62.63;100494.75;105030;1262;71511;-60
2023/10/07 02:08:29;;;;;;;5.70;2.50;;;;;;;15.64;62.70;100501.15;105163;1261;69272;-60
2023/10/07 02:10:58;;;;;;;6.20;2.40;;;;;;;15.64;62.84;100501.69;105109;1262;69213;-60
2023/10/07 02:13:30;;;;;;;9.30;3.00;;;;;;;15.64;62.92;100494.23;105150;1262;71919;-59
2023/10/07 02:16:04;;;;;;;5.10;2.90;;;;;;;15.64;62.99;100492.48;105082;1262;81464;-60
2023/10/07 02:18:35;;;;;;;5.50;2.60;;;;;;;15.65;63.06;100490.88;105014;1260;71620;-60
2023/10/07 02:21:07;;;;;;;5.10;2.50;;;;;;;15.67;63.19;100492.19;105060;1259;69096;-60
2023/10/07 02:23:37;;;;;;;6.30;2.70;;;;;;;15.66;63.23;100487.63;105106;1260;69126;-60
2023/10/07 02:26:07;;;;;;;6.70;2.80;;;;;;;15.66;63.28;100477.42;105132;1262;74384;-60
2023/10/07 02:28:35;;;;;;;4.90;2.60;;;;;;;15.67;63.33;100479.30;105111;1260;80254;-60
2023/10/07 02:31:08;;;;;;;6.60;2.60;;;;;;;15.69;63.46;100477.80;105129;1259;71580;-60
2023/10/07 02:33:42;;;;;;;6.80;2.30;;;;;;;15.72;63.62;100486.11;105121;1262;69222;-60
2023/10/07 02:36:14;;;;;;;4.30;2.70;;;;;;;15.73;63.73;100480.91;105120;1262;69196;-60
2023/10/07 02:38:42;;;;;;;7.70;3.10;;;;;;;15.76;63.82;100481.81;105095;1260;73639;-60
2023/10/07 02:41:19;;;;;;;5.70;2.90;;;;;;;15.78;63.88;100474.98;105070;1262;81251;-60
2023/10/07 02:43:48;;;;;;;6.90;2.50;;;;;;;15.80;63.93;100480.16;105039;1260;71925;-60
2023/10/07 02:46:31;;;;;;;4.20;2.60;;;;;;;15.80;63.97;100479.61;105128;1262;69099;-60
2023/10/07 02:49:05;;;;;;;8.80;3.30;;;;;;;15.82;64.02;100484.63;105101;1263;69285;-60
2023/10/07 02:51:39;;;;;;;7.60;3.00;;;;;;;15.81;64.01;100479.38;105061;1260;74717;-60
2023/10/07 02:54:19;;;;;;;6.60;2.40;;;;;;;15.80;64.07;100474.15;105020;1261;83231;-60
2023/10/07 02:56:55;;;;;;;5.40;2.70;;;;;;;15.80;64.13;100474.54;105073;1258;70771;-60
2023/10/07 02:59:29;;;;;;;5.50;2.40;;;;;;;15.80;64.24;100476.09;105015;1263;69740;-60
2023/10/07 03:05:04;;;;;;;4.70;2.40;;;;;;;15.82;64.34;100486.03;105040;1259;73430;-60
2023/10/07 03:07:34;;;;;;;4.90;2.40;;;;;;;15.83;64.44;100481.01;105074;1262;82453;-60
2023/10/07 03:10:28;;;;;;;4.90;2.70;;;;;;;15.84;64.48;100480.44;105070;1259;71725;-60
2023/10/07 03:12:57;;;;;;;7.80;2.80;;;;;;;15.86;64.57;100478.63;105057;1262;69096;-60
2023/10/07 03:18:03;;;;;;;5.00;2.50;;;;;;;15.86;64.64;100481.58;105081;1260;73215;-60
2023/10/07 03:20:46;;;;;;;4.70;2.50;;;;;;;15.88;64.71;100483.42;105110;1259;81727;-60
2023/10/07 03:23:15;;;;;;;4.40;2.50;;;;;;;15.89;64.74;100468.90;104995;1260;71459;-60
2023/10/07 03:28:25;;;;;;;7.30;3.10;;;;;;;15.90;64.82;100475.17;105099;1262;69205;-60
2023/10/07 03:30:55;;;;;;;8.20;2.60;;;;;;;15.91;64.88;100476.39;105100;1261;72723;-60
2023/10/07 03:41:47;;;;;;;5.80;2.30;;;;;;;15.86;65.33;100469.10;105042;1260;69190;-60
2023/10/07 03:44:17;;;;;;;4.80;2.40;;;;;;;15.84;65.54;100460.73;105095;1260;73509;-60
2023/10/07 03:46:49;;;;;;;6.40;2.80;;;;;;;15.85;65.79;100468.44;105130;1260;81658;-60
2023/10/07 03:49:21;;;;;;;5.60;2.50;;;;;;;15.87;65.90;100450.67;105069;1260;72559;-60
2023/10/07 03:52:12;;;;;;;4.70;2.10;;;;;;;15.89;65.91;100455.15;105058;1262;69125;-60
2023/10/07 03:54:40;;;;;;;5.70;2.40;;;;;;;15.93;65.97;100449.66;105091;1262;69218;-59
2023/10/07 03:57:09;;;;;;;8.10;2.40;;;;;;;15.93;66.04;100443.09;105131;1261;74052;-60
2023/10/07 03:59:38;;;;;;;5.90;2.20;;;;;;;15.94;66.03;100435.67;105097;1262;81712;-60
2023/10/07 04:02:34;;;;;;;7.80;2.90;;;;;;;15.94;66.08;100447.09;105035;1260;71802;-59
2023/10/07 04:05:12;;;;;;;5.00;2.30;;;;;;;15.94;66.16;100446.74;105075;1260;69101;-59
2023/10/07 04:07:43;;;;;;;5.00;2.70;;;;;;;15.93;66.19;100441.37;105107;1261;69143;-60
2023/10/07 04:10:31;;;;;;;8.00;2.90;;;;;;;15.92;66.32;100438.09;105091;1259;73751;-60
2023/10/07 04:12:59;;;;;;;6.90;2.70;;;;;;;15.92;66.49;100439.66;105109;1260;80323;-60
2023/10/07 04:15:34;;;;;;;6.90;2.50;;;;;;;15.91;66.52;100447.32;105077;1260;72034;-60
2023/10/07 04:18:03;;;;;;;6.60;2.40;;;;;;;15.92;66.66;100452.20;105055;1260;69075;-60
2023/10/07 04:23:35;;;;;;;4.80;2.50;;;;;;;15.93;67.03;100445.05;104702;1264;73650;-60
2023/10/07 04:26:08;;;;;;;4.10;2.30;;;;;;;15.96;67.06;100443.86;105000;1262;81208;-60
2023/10/07 04:28:40;;;;;;;4.10;2.40;;;;;;;15.96;67.11;100447.70;105050;1260;72154;-60
2023/10/07 04:31:12;;;;;;;4.90;2.10;;;;;;;15.98;67.20;100450.04;105060;1259;69164;-60
2023/10/07 04:33:41;;;;;;;5.60;2.40;;;;;;;16.01;67.31;100454.81;105073;1259;69189;-60
2023/10/07 04:36:14;;;;;;;5.50;2.30;;;;;;;16.02;67.30;100453.70;105123;1259;74026;-60
2023/10/07 04:39:18;;;;;;;7.50;2.70;;;;;;;16.03;67.32;100449.05;105088;1262;81502;-59
2023/10/07 04:41:36;;;;;;;7.30;2.40;;;;;;;16.03;67.42;100446.24;105083;1260;73161;-60
2023/10/07 04:45:00;;;;;;;7.40;3.00;;;;;;;16.03;67.36;100440.59;105023;1262;69106;-60
2023/10/07 04:47:29;;;;;;;5.40;2.70;;;;;;;16.03;67.33;100438.84;105090;1262;69123;-60
2023/10/07 04:52:39;;;;;;;7.50;2.30;;;;;;;16.00;67.37;100433.73;105094;1259;81007;-60
2023/10/07 04:55:15;;;;;;;6.60;2.60;;;;;;;15.99;67.43;100431.85;105134;1262;73720;-59
2023/10/07 04:57:44;;;;;;;5.20;2.40;;;;;;;15.99;67.58;100429.89;105099;1261;69132;-60
2023/10/07 05:00:33;;;;;;;6.50;2.10;;;;;;;16.00;67.58;100433.17;105101;1262;69186;-60
2023/10/07 05:03:15;;;;;;;4.40;2.00;;;;;;;16.02;67.70;100422.66;105086;1259;72566;-60
2023/10/07 05:05:44;;;;;;;5.40;2.90;;;;;;;16.04;67.62;100431.70;105096;1262;83617;-60
2023/10/07 05:08:19;;;;;;;8.00;2.30;;;;;;;16.05;67.56;100427.59;105019;1260;71515;-59
2023/10/07 05:10:54;;;;;;;6.80;2.70;;;;;;;16.06;67.64;100433.34;105064;1262;69222;-60
2023/10/07 05:13:24;;;;;;;5.30;2.10;;;;;;;16.07;67.64;100432.08;105078;1260;69196;-60
2023/10/07 05:15:52;;;;;;;6.20;2.70;;;;;;;16.07;67.61;100431.36;105088;1259;72684;-60
2023/10/07 05:18:20;;;;;;;6.60;2.40;;;;;;;16.07;67.62;100437.16;105106;1259;81751;-60
2023/10/07 05:20:48;;;;;;;5.50;2.30;;;;;;;16.08;67.79;100436.42;105061;1260;70336;-60
2023/10/07 05:23:18;;;;;;;6.50;2.40;;;;;;;16.09;67.80;100437.80;105078;1262;69131;-60
2023/10/07 05:25:49;;;;;;;4.40;2.20;;;;;;;16.11;67.78;100443.67;105092;1262;69196;-60
2023/10/07 05:28:22;;;;;;;8.10;2.40;;;;;;;16.10;67.76;100444.23;105091;1259;73749;-60
2023/10/07 05:30:51;;;;;;;6.20;2.50;;;;;;;16.10;67.84;100437.03;105058;1262;80399;-60
2023/10/07 05:33:25;;;;;;;6.60;2.30;;;;;;;16.09;67.82;100443.08;105097;1259;72986;-60
2023/10/07 05:36:14;;;;;;;6.40;2.40;;;;;;;16.08;67.78;100436.60;105080;1259;69184;-60
2023/10/07 05:38:47;;;;;;;5.60;2.20;;;;;;;16.05;67.91;100436.58;105077;1260;69292;-60
2023/10/07 05:41:15;;;;;;;5.30;2.00;;;;;;;16.04;67.93;100437.71;105117;1260;73870;-59
2023/10/07 05:43:48;;;;;;;6.10;1.90;;;;;;;16.01;67.93;100445.64;105288;1261;81275;-58
2023/10/07 05:46:20;;;;;;;5.10;2.20;;;;;;;15.98;68.03;100447.20;105263;1259;71740;-58
2023/10/07 05:48:51;;;;;;;6.30;2.30;;;;;;;15.96;68.18;100448.05;105154;1262;69218;-58
2023/10/07 05:51:20;;;;;;;4.20;2.30;;;;;;;15.95;68.28;100453.05;105380;1259;69193;-57
2023/10/07 05:53:48;;;;;;;6.40;2.90;;;;;;;15.93;68.37;100453.48;105256;1259;74284;-58
2023/10/07 05:56:17;;;;;;;6.80;2.60;;;;;;;15.92;68.52;100462.17;105249;1261;82726;-59
2023/10/07 05:58:46;;;;;;;5.40;2.50;;;;;;;15.93;68.61;100455.12;105157;1259;72967;-58
2023/10/07 06:01:16;;;;;;;5.20;1.90;;;;;;;15.92;68.62;100460.27;105280;1262;69217;-55
2023/10/07 06:03:46;;;;;;;6.80;2.00;;;;;;;15.92;68.71;100462.73;105288;1262;69234;-58
2023/10/07 06:06:15;;;;;;;4.50;2.10;;;;;;;15.91;68.69;100466.66;105286;1261;72861;-58
2023/10/07 06:08:43;;;;;;;5.80;2.50;;;;;;;15.91;68.83;100470.40;105109;1260;81701;-58
2023/10/07 06:11:11;;;;;;;3.60;1.90;;;;;;;15.92;68.95;100469.95;105089;1262;71009;-58
2023/10/07 06:13:44;;;;;;;4.10;2.00;;;;;;;15.93;69.09;100475.21;105125;1259;69022;-58
2023/10/07 06:16:13;;;;;;;4.00;2.30;;;;;;;15.96;69.31;100466.58;105262;1260;69123;-58
2023/10/07 06:18:42;;;;;;;4.30;2.10;;;;;;;16.00;69.33;100465.26;105299;1259;74999;-59
2023/10/07 06:21:27;;;;;;;6.00;2.20;;;;;;;16.05;69.45;100458.06;105185;1260;83288;-58
2023/10/07 06:24:00;;;;;;;5.00;2.60;;;;;;;16.08;69.45;100454.05;105001;1259;227408;-58
2023/10/07 06:26:31;;;;;;;4.90;2.30;;;;;;;16.12;69.60;100452.39;105270;1259;69178;-58
2023/10/07 06:29:05;;;;;;;4.40;2.30;;;;;;;16.17;69.62;100448.39;105236;1262;69177;-58
2023/10/07 06:31:36;;;;;;;5.80;2.10;;;;;;;16.23;69.64;100453.34;105193;1259;73054;-58
2023/10/07 06:34:14;;;;;;;6.30;2.60;;;;;;;16.29;69.62;100458.45;105225;1262;81801;-58
2023/10/07 06:36:42;;;;;;;4.70;2.30;;;;;;;16.35;69.66;100455.80;105231;1262;71706;-58
2023/10/07 06:39:11;;;;;;;4.50;1.90;;;;;;;16.40;69.74;100457.05;105230;1262;69156;-58
2023/10/07 06:41:42;;;;;;;7.40;2.40;;;;;;;16.47;69.83;100458.07;105565;1259;69212;-58
2023/10/07 06:44:11;;;;;;;5.80;2.10;;;;;;;16.52;69.69;100457.21;105401;1259;73956;-58
2023/10/07 06:46:44;;;;;;;4.30;2.40;;;;;;;16.57;69.73;100445.96;105294;1262;82958;-58
2023/10/07 06:49:19;;;;;;;6.30;2.50;;;;;;;16.63;69.60;100444.18;105223;1260;71689;-59
2023/10/07 06:51:52;;;;;;;5.30;2.20;;;;;;;16.71;69.67;100436.30;105162;1260;69183;-58
2023/10/07 06:54:23;;;;;;;5.40;2.40;;;;;;;16.79;69.54;100443.96;105192;1259;69232;-58
2023/10/07 06:56:54;;;;;;;6.70;2.60;;;;;;;16.85;69.41;100445.73;105302;1260;73814;-58
2023/10/07 06:59:30;;;;;;;4.30;2.50;;;;;;;16.89;69.30;100441.23;105260;1261;81569;-58
2023/10/07 07:02:06;;;;;;;6.60;2.60;;;;;;;16.95;69.28;100442.27;105181;1261;72854;-58
2023/10/07 07:04:35;;;;;;;5.20;2.40;;;;;;;17.01;69.19;100444.51;105199;1258;69114;-58
2023/10/07 07:07:10;;;;;;;4.90;2.10;;;;;;;17.05;69.13;100440.58;105261;1261;69095;-58
2023/10/07 07:09:50;;;;;;;4.50;2.10;;;;;;;17.06;68.99;100435.03;105078;1260;74062;-58
2023/10/07 07:12:21;;;;;;;3.50;2.00;;;;;;;17.08;68.88;100442.27;105145;1262;82741;-58
2023/10/07 07:14:51;;;;;;;5.60;2.40;;;;;;;17.14;68.84;100436.48;105193;1259;71824;-58
2023/10/07 07:17:30;;;;;;;4.60;2.10;;;;;;;17.20;68.93;100435.89;105167;1259;69132;-58
2023/10/07 07:22:46;;;;;;;5.10;2.10;;;;;;;17.33;68.78;100438.77;105338;1260;74818;-58
2023/10/07 07:25:35;;;;;;;6.60;2.70;;;;;;;17.38;68.61;100430.30;105247;1260;81131;-58
2023/10/07 07:28:06;;;;;;;8.20;2.60;;;;;;;17.38;68.30;100438.09;105285;1260;71395;-58
2023/10/07 07:30:35;;;;;;;4.60;1.90;;;;;;;17.39;68.36;100436.29;105282;1262;69096;-57
2023/10/07 07:33:08;;;;;;;4.40;2.30;;;;;;;17.39;68.34;100434.29;105217;1262;69205;-59
2023/10/07 07:35:39;;;;;;;8.10;2.80;;;;;;;17.44;68.24;100442.48;105154;1260;74961;-59
2023/10/07 07:40:52;;;;;;;5.70;2.30;;;;;;;17.57;67.70;100435.82;105087;1259;72896;-58
2023/10/07 07:43:25;;;;;;;;;;;;;;;17.64;67.60;100455.30;105198;1259;69040;-58
2023/10/07 07:46:11;;;;;;;6.40;2.80;;;;;;;17.73;67.57;100453.84;105138;1262;69235;-59
2023/10/07 07:48:39;;;;;;;4.30;2.20;;;;;;;17.81;67.47;100445.67;105107;1259;73741;-58
2023/10/07 07:51:07;;;;;;;7.00;2.30;;;;;;;17.94;67.54;100442.73;105126;1260;80656;-59
2023/10/07 07:53:35;;;;;;;5.20;2.20;;;;;;;18.05;67.42;100448.17;105100;1261;72970;-59
2023/10/07 07:56:05;;;;;;;5.30;2.70;;;;;;;18.12;67.20;100448.82;105087;1259;69087;-59
2023/10/07 07:58:37;;;;;;;6.70;2.50;;;;;;;18.15;67.13;100454.10;105126;1262;69290;-59
2023/10/07 08:01:06;;;;;;;5.20;2.40;;;;;;;18.15;66.95;100452.84;105105;1259;75024;-59
2023/10/07 08:03:35;;;;;;;7.30;2.40;;;;;;;18.11;66.69;100459.63;105240;1262;81724;-59
2023/10/07 08:06:04;;;;;;;4.60;2.60;;;;;;;18.05;66.65;100462.14;105128;1258;72349;-59
2023/10/07 08:08:36;;;;;;;4.80;2.70;;;;;;;18.01;66.72;100450.24;105245;1259;69103;-59
2023/10/07 08:11:05;;;;;;;5.90;2.10;;;;;;;17.97;66.78;100462.67;105160;1259;69196;-59
2023/10/07 08:13:33;;;;;;;5.80;2.30;;;;;;;17.96;66.89;100460.67;105188;1259;73914;-59
2023/10/07 08:16:05;;;;;;;4.10;2.10;;;;;;;17.99;67.06;100467.17;105178;1263;81848;-58
2023/10/07 08:18:33;;;;;;;3.40;2.20;;;;;;;18.01;66.91;100469.83;105181;1260;70670;-59
2023/10/07 08:21:09;;;;;;;4.40;1.80;;;;;;;18.00;67.03;100457.86;105210;1262;69084;-58
2023/10/07 08:23:40;;;;;;;5.60;2.10;;;;;;;18.06;67.25;100463.85;105127;1259;69288;-59
2023/10/07 08:26:22;;;;;;;6.40;2.50;;;;;;;18.11;67.32;100461.95;105477;1260;73143;-59
2023/10/07 08:28:59;;;;;;;4.50;2.30;;;;;;;18.15;67.20;100467.35;105187;1262;81608;-59
2023/10/07 08:31:44;;;;;;;4.80;1.80;;;;;;;18.19;67.17;100470.03;105254;1260;73109;-59
2023/10/07 08:34:15;;;;;;;4.60;2.30;;;;;;;18.18;67.02;100468.20;105227;1260;69188;-58
2023/10/07 08:36:43;;;;;;;6.60;2.20;;;;;;;18.15;67.12;100468.05;105232;1262;69211;-60
2023/10/07 08:39:17;;;;;;;4.50;2.10;;;;;;;18.11;67.12;100474.84;105266;1260;73945;-59
2023/10/07 08:41:52;;;;;;;5.50;2.70;;;;;;;18.08;67.00;100478.05;105321;1260;82768;-59
2023/10/07 08:44:29;;;;;;;5.20;2.30;;;;;;;18.04;67.12;100482.04;105227;1262;71891;-59
2023/10/07 08:47:04;;;;;;;5.10;2.40;;;;;;;17.97;66.94;100498.91;105195;1259;69102;-59
2023/10/07 08:49:35;;;;;;;5.70;2.30;;;;;;;17.89;67.09;100501.61;105159;1258;69186;-59
2023/10/07 08:52:10;;;;;;;7.70;2.50;;;;;;;17.82;67.14;100495.53;105246;1260;72726;-59
2023/10/07 08:54:44;;;;;;;6.40;2.30;;;;;;;17.75;67.21;100505.86;105078;1260;81294;-59
2023/10/07 08:57:19;;;;;;;5.30;2.10;;;;;;;17.69;67.34;100510.80;105122;1260;71717;-59
2023/10/07 08:59:49;;;;;;;4.60;2.20;;;;;;;17.65;67.67;100504.59;105086;1262;69151;-59
2023/10/07 09:02:30;;;;;;;4.30;2.00;;;;;;;17.62;67.84;100501.73;105066;1262;69199;-59
2023/10/07 09:05:05;;;;;;;6.30;2.10;;;;;;;17.60;67.95;100498.64;105090;1260;74582;-59
2023/10/07 09:07:35;;;;;;;4.90;2.10;;;;;;;17.64;68.15;100499.81;105114;1259;82548;-59
2023/10/07 09:10:15;;;;;;;3.50;2.00;;;;;;;17.71;68.35;100495.33;105036;1259;71775;-59
2023/10/07 09:12:50;;;;;;;;;;;;;;;17.82;68.51;100496.38;105097;1262;69162;-59
2023/10/07 09:15:34;;;;;;;3.50;1.90;;;;;;;17.87;68.44;100503.83;105037;1262;69198;-59
2023/10/07 09:18:06;;;;;;;5.10;2.00;;;;;;;17.90;68.50;100502.27;105038;1259;73868;-59
2023/10/07 09:20:45;;;;;;;6.50;1.90;;;;;;;17.87;68.60;100503.53;105095;1259;82996;-59
2023/10/07 09:23:19;;;;;;;10.00;2.10;;;;;;;17.85;68.86;100505.02;105047;1262;71757;-59
2023/10/07 09:25:52;;;;;;;5.90;2.10;;;;;;;17.85;69.02;100494.77;105066;1262;69150;-59
2023/10/07 09:28:31;;;;;;;4.00;1.80;;;;;;;17.90;69.23;100496.06;105090;1262;69146;-59
2023/10/07 09:31:05;;;;;;;5.20;1.80;;;;;;;18.01;69.34;100489.66;105143;1262;73897;-58
2023/10/07 09:33:36;;;;;;;7.40;2.10;;;;;;;18.14;69.39;100493.02;105050;1259;81692;-59
2023/10/07 09:41:39;;;;;;;5.50;2.00;;;;;;;18.42;69.06;100487.73;105108;1262;69164;-59
2023/10/07 09:44:21;;;;;;;3.20;1.90;;;;;;;18.54;68.91;100487.14;105150;1262;75029;-59
2023/10/07 09:46:52;;;;;;;9.20;2.70;;;;;;;18.67;68.81;100501.09;105088;1262;81888;-59
2023/10/07 09:49:23;;;;;;;5.70;2.20;;;;;;;18.75;68.47;100501.63;105072;1260;72786;-59
2023/10/07 09:52:15;;;;;;;5.40;2.20;;;;;;;18.76;68.19;100511.33;105094;1260;69093;-59
2023/10/07 09:55:18;;;;;;;5.30;2.10;;;;;;;18.77;68.11;100506.80;105085;1262;69306;-59
2023/10/07 09:58:11;;;;;;;5.90;1.90;;;;;;;18.80;67.93;100510.38;105077;1262;72724;-59
2023/10/07 10:01:05;;;;;;;6.80;2.80;;;;;;;18.78;67.87;100512.59;105075;1262;82777;-59
2023/10/07 10:04:06;;;;;;;5.10;2.30;;;;;;;18.77;67.94;100509.66;105032;1262;73053;-59
2023/10/07 10:06:50;;;;;;;5.00;2.20;;;;;;;18.82;67.81;100508.05;105076;1259;69174;-59
2023/10/07 10:09:25;;;;;;;5.10;2.20;;;;;;;18.81;67.65;100502.84;105066;1259;69210;-59
2023/10/07 10:14:56;;;;;;;5.00;2.20;;;;;;;18.92;67.88;100524.16;105060;1262;82701;-59
2023/10/07 10:17:33;;;;;;;4.00;2.00;;;;;;;18.94;67.60;100515.90;105002;1260;73053;-59
2023/10/07 10:20:10;;;;;;;6.10;2.10;;;;;;;19.03;67.67;100506.79;105063;1262;69134;-59
2023/10/07 10:22:52;;;;;;;4.60;1.90;;;;;;;19.15;67.50;100503.96;105063;1262;69132;-58
2023/10/07 10:25:36;;;;;;;3.80;2.10;;;;;;;19.39;67.74;100497.61;105085;1260;75090;-59
2023/10/07 10:28:10;;;;;;;5.00;2.80;;;;;;;19.78;67.61;100490.54;105034;1262;81790;-59
2023/10/07 10:30:46;;;;;;;5.60;2.30;;;;;;;20.18;67.09;100498.05;105113;1260;73143;-59
2023/10/07 10:33:19;;;;;;;8.80;2.10;;;;;;;20.37;66.00;100491.26;105066;1258;69672;-59
2023/10/07 10:35:51;;;;;;;6.60;2.10;;;;;;;20.47;65.46;100493.52;105057;1260;69105;-59
2023/10/07 10:38:20;;;;;;;4.50;2.20;;;;;;;20.55;65.05;100494.54;105057;1262;75018;-59
2023/10/07 10:40:48;;;;;;;3.80;1.70;;;;;;;20.46;64.51;100498.52;105035;1262;82641;-59
2023/10/07 10:43:23;;;;;;;5.30;2.30;;;;;;;20.30;64.44;100501.73;105064;1260;73676;-59
2023/10/07 10:46:04;;;;;;;6.30;2.70;;;;;;;20.20;64.13;100512.92;105069;1258;69089;-59
2023/10/07 10:48:38;;;;;;;7.90;2.10;;;;;;;19.87;63.52;100500.73;105088;1259;69120;-59
2023/10/07 10:51:08;;;;;;;4.20;2.20;;;;;;;19.65;63.86;100495.92;105069;1259;75083;-59
2023/10/07 10:53:46;;;;;;;5.90;2.20;;;;;;;19.51;63.92;100496.63;105121;1260;81675;-59
2023/10/07 10:56:15;;;;;;;6.10;2.40;;;;;;;19.33;64.16;100493.30;105081;1260;72015;-59
2023/10/07 10:58:53;;;;;;;9.80;2.20;;;;;;;19.23;64.41;100478.47;105121;1260;69193;-59
2023/10/07 11:01:22;;;;;;;6.10;2.70;;;;;;;19.11;64.56;100475.20;105057;1260;69208;-59
2023/10/07 11:03:51;;;;;;;5.60;2.40;;;;;;;19.02;64.71;100472.46;105109;1259;75102;-59
2023/10/07 11:06:19;;;;;;;5.50;2.00;;;;;;;18.99;64.79;100474.48;105117;1262;82976;-59
2023/10/07 11:08:48;;;;;;;4.50;2.20;;;;;;;18.91;65.05;100470.44;105025;1262;71969;-59
2023/10/07 11:11:17;;;;;;;3.80;2.20;;;;;;;18.95;65.43;100475.23;105012;1257;69145;-59
2023/10/07 11:13:54;;;;;;;9.20;2.70;;;;;;;19.09;65.67;100479.03;105074;1262;69185;-59
2023/10/07 11:16:22;;;;;;;4.90;2.10;;;;;;;19.18;65.65;100477.15;105074;1260;73529;-59
2023/10/07 11:18:51;;;;;;;5.70;2.00;;;;;;;19.21;65.50;100474.51;105151;1261;82706;-58
2023/10/07 11:21:21;;;;;;;5.10;2.80;;;;;;;19.27;65.65;100475.98;105112;1259;70812;-59
2023/10/07 11:23:53;;;;;;;11.40;2.70;;;;;;;19.28;65.23;100478.42;105070;1262;69129;-59
2023/10/07 11:26:23;;;;;;;8.20;2.60;;;;;;;19.23;65.30;100475.78;105079;1259;69204;-59
2023/10/07 11:28:52;;;;;;;5.70;2.10;;;;;;;19.20;65.39;100471.38;105117;1259;75222;-59
2023/10/07 11:31:30;;;;;;;7.60;2.10;;;;;;;19.12;65.26;100464.66;105129;1262;81344;-59
2023/10/07 11:34:01;;;;;;;5.20;2.40;;;;;;;19.07;65.62;100465.02;105055;1262;72074;-59
2023/10/07 11:36:30;;;;;;;4.60;2.10;;;;;;;18.98;65.49;100464.09;105019;1262;69224;-59
2023/10/07 11:38:58;;;;;;;6.30;2.40;;;;;;;18.83;65.71;100460.15;105066;1260;69189;-59
2023/10/07 11:41:27;;;;;;;3.00;2.00;;;;;;;18.78;65.96;100463.56;105028;1260;74987;-58
2023/10/07 11:43:57;;;;;;;5.20;2.10;;;;;;;18.66;66.03;100459.92;105095;1259;81875;-58
2023/10/07 11:46:27;;;;;;;;;;;;;;;18.53;66.02;100458.75;105119;1260;73040;-58
2023/10/07 11:48:56;;;;;;;6.70;2.20;;;;;;;18.45;66.44;100459.59;105059;1262;69133;-58
2023/10/07 11:51:25;;;;;;;5.70;2.40;;;;;;;18.41;66.63;100458.45;105054;1262;69783;-58
2023/10/07 11:53:55;;;;;;;8.90;3.10;;;;;;;18.38;66.75;100456.73;105082;1262;74006;-58
2023/10/07 11:56:23;;;;;;;9.10;2.60;;;;;;;18.35;66.93;100463.17;105104;1262;82574;-58
2023/10/07 11:58:52;;;;;;;5.30;2.20;;;;;;;18.30;67.13;100467.55;105031;1262;73980;-58
2023/10/07 12:01:23;;;;;;;4.40;2.60;;;;;;;18.28;67.20;100462.39;105082;1262;69131;-58
2023/10/07 12:03:53;;;;;;;6.10;2.60;;;;;;;18.26;67.54;100461.08;105048;1260;69180;-58
2023/10/07 12:06:21;;;;;;;3.50;2.10;;;;;;;18.26;67.78;100457.53;105121;1259;74188;-58
2023/10/07 12:08:50;;;;;;;5.60;2.20;;;;;;;18.26;67.88;100453.65;105049;1261;82479;-58
2023/10/07 12:11:18;;;;;;;3.30;2.40;;;;;;;18.20;67.83;100458.32;105043;1260;72223;-58
2023/10/07 12:13:46;;;;;;;4.40;1.90;;;;;;;18.18;68.20;100451.56;105040;1259;69207;-58
2023/10/07 12:16:16;;;;;;;3.30;2.10;;;;;;;18.22;68.44;100450.05;105050;1260;69376;-58
2023/10/07 12:18:48;;;;;;;3.20;1.90;;;;;;;18.24;68.40;100447.79;105096;1259;74196;-58
2023/10/07 12:21:17;;;;;;;3.70;2.20;;;;;;;18.28;68.58;100440.29;105097;1259;82907;-59
2023/10/07 12:23:45;;;;;;;5.40;2.20;;;;;;;18.42;68.73;100433.83;105042;1262;72935;-58
2023/10/07 12:26:13;;;;;;;4.80;1.90;;;;;;;18.56;68.62;100432.67;105116;1263;69193;-58
2023/10/07 12:28:48;;;;;;;3.10;2.00;;;;;;;18.70;68.69;100433.11;105068;1260;69206;-58
2023/10/07 12:31:17;;;;;;;5.70;2.30;;;;;;;18.80;68.44;100432.77;105065;1260;74357;-58
2023/10/07 12:33:45;;;;;;;3.50;2.00;;;;;;;18.75;68.12;100432.05;105071;1262;81594;-58
2023/10/07 12:36:15;;;;;;;4.70;2.70;;;;;;;18.70;68.16;100423.69;105031;1259;73091;-58
2023/10/07 12:38:43;;;;;;;4.30;1.80;;;;;;;18.66;68.34;100427.15;105104;1262;69154;-58
2023/10/07 12:41:14;;;;;;;4.30;2.30;;;;;;;18.68;68.40;100427.04;105111;1262;69211;-59
2023/10/07 12:43:43;;;;;;;5.40;2.30;;;;;;;18.64;68.21;100430.50;105084;1259;73810;-58
2023/10/07 12:46:12;;;;;;;4.60;2.10;;;;;;;18.60;68.40;100424.27;105151;1262;81635;-58
2023/10/07 12:48:40;;;;;;;5.00;2.10;;;;;;;18.58;68.52;100422.64;105018;1262;72114;-58